createdAt,value
2022-12-05T00:01:17.213Z,3.97
2022-12-05T00:03:45.633Z,3.99
2022-12-05T00:06:13.333Z,4.03
2022-12-05T00:08:40.998Z,4.05
2022-12-05T00:11:13.490Z,4.08
2022-12-05T00:13:41.330Z,4.09
2022-12-05T00:16:12.649Z,4.06
2022-12-05T00:18:40.905Z,4.08
2022-12-05T00:21:12.695Z,4.05
2022-12-05T00:23:40.307Z,4.05
2022-12-05T00:26:08.134Z,4.08
2022-12-05T00:28:36.363Z,4.09
2022-12-05T00:31:07.040Z,4.08
2022-12-05T00:33:36.099Z,4.09
2022-12-05T00:36:04.950Z,4.09
2022-12-05T00:38:32.715Z,4.01
2022-12-05T00:41:03.914Z,3.92
2022-12-05T00:43:31.595Z,3.90
2022-12-05T00:46:02.286Z,3.79
2022-12-05T00:48:30.110Z,3.79
2022-12-05T00:51:02.957Z,3.80
2022-12-05T00:53:30.750Z,3.82
2022-12-05T00:56:02.375Z,3.86
2022-12-05T00:58:30.416Z,3.90
2022-12-05T01:00:58.094Z,3.90
2022-12-05T01:03:25.869Z,3.95
2022-12-05T01:05:53.522Z,3.81
2022-12-05T01:08:22.502Z,3.84
2022-12-05T01:10:54.519Z,3.88
2022-12-05T01:13:22.300Z,3.91
2022-12-05T01:15:49.877Z,3.82
2022-12-05T01:18:17.434Z,3.85
2022-12-05T01:20:45.665Z,3.82
2022-12-05T01:23:13.552Z,3.82
2022-12-05T01:25:43.884Z,3.79
2022-12-05T01:28:11.882Z,3.83
2022-12-05T01:30:40.515Z,3.81
2022-12-05T01:33:08.560Z,3.80
2022-12-05T01:35:37.660Z,3.79
2022-12-05T01:38:06.283Z,3.80
2022-12-05T01:40:36.292Z,3.85
2022-12-05T01:43:07.587Z,3.87
2022-12-05T01:45:37.749Z,3.89
2022-12-05T01:48:10.267Z,3.91
2022-12-05T01:50:38.539Z,3.87
2022-12-05T01:53:06.627Z,3.76
2022-12-05T01:55:36.453Z,3.73
2022-12-05T01:58:07.541Z,3.76
2022-12-05T02:00:37.291Z,3.74
2022-12-05T02:03:08.929Z,3.76
2022-12-05T02:05:38.007Z,3.76
2022-12-05T02:08:07.964Z,3.75
2022-12-05T02:10:39.662Z,3.77
2022-12-05T02:13:37.302Z,3.79
2022-12-05T02:16:11.826Z,3.80
2022-12-05T02:18:51.458Z,3.78
2022-12-05T02:21:49.374Z,3.79
2022-12-05T02:24:35.644Z,3.83
2022-12-05T02:27:22.069Z,3.85
2022-12-05T02:30:10.848Z,3.84
2022-12-05T02:33:07.644Z,3.82
2022-12-05T02:35:44.361Z,3.85
2022-12-05T02:38:22.887Z,3.83
2022-12-05T02:41:00.034Z,3.82
2022-12-05T02:43:33.614Z,3.85
2022-12-05T02:46:08.994Z,3.86
2022-12-05T02:48:38.480Z,3.89
2022-12-05T02:51:09.949Z,3.89
2022-12-05T02:53:39.307Z,3.90
2022-12-05T02:56:08.085Z,3.93
2022-12-05T02:58:42.142Z,3.96
2022-12-05T03:01:11.564Z,4.01
2022-12-05T03:03:39.210Z,4.00
2022-12-05T03:06:13.207Z,3.97
2022-12-05T03:08:45.882Z,3.99
2022-12-05T03:11:14.159Z,3.94
2022-12-05T03:13:46.656Z,3.98
2022-12-05T03:16:21.088Z,4.03
2022-12-05T03:18:54.644Z,4.03
2022-12-05T03:21:29.234Z,4.04
2022-12-05T03:24:01.492Z,4.05
2022-12-05T03:26:47.524Z,4.12
2022-12-05T03:29:23.984Z,4.12
2022-12-05T03:32:03.996Z,4.12
2022-12-05T03:34:41.273Z,4.14
2022-12-05T03:37:14.310Z,4.18
2022-12-05T03:39:46.313Z,4.19
2022-12-05T03:42:17.016Z,4.18
2022-12-05T03:44:51.485Z,4.20
2022-12-05T03:47:27.602Z,4.23
2022-12-05T03:50:00.485Z,4.22
2022-12-05T03:52:51.062Z,4.23
2022-12-05T03:55:24.941Z,4.23
2022-12-05T03:57:58.109Z,4.23
2022-12-05T04:00:27.578Z,4.25
2022-12-05T04:03:00.777Z,4.21
2022-12-05T04:05:34.664Z,4.22
2022-12-05T04:08:07.395Z,4.22
2022-12-05T04:10:48.514Z,4.21
2022-12-05T04:13:19.565Z,4.23
2022-12-05T04:16:09.885Z,4.25
2022-12-05T04:18:43.603Z,4.24
2022-12-05T04:21:32.075Z,4.23
2022-12-05T04:24:17.312Z,4.28
2022-12-05T04:26:48.690Z,4.30
2022-12-05T04:29:23.553Z,4.32
2022-12-05T04:31:55.872Z,4.32
2022-12-05T04:34:29.152Z,4.29
2022-12-05T04:36:58.989Z,4.26
2022-12-05T04:39:30.260Z,4.22
2022-12-05T04:42:03.278Z,4.23
2022-12-05T04:44:34.433Z,4.20
2022-12-05T04:47:06.592Z,4.17
2022-12-05T04:49:37.052Z,4.18
2022-12-05T04:52:09.303Z,4.12
2022-12-05T04:54:41.409Z,4.04
2022-12-05T04:57:13.474Z,4.04
2022-12-05T04:59:41.086Z,4.03
2022-12-05T05:02:10.416Z,4.04
2022-12-05T05:04:43.411Z,4.06
2022-12-05T05:07:13.346Z,4.12
2022-12-05T05:09:41.625Z,4.16
2022-12-05T05:12:13.186Z,4.17
2022-12-05T05:14:43.252Z,4.17
2022-12-05T05:17:10.886Z,4.22
2022-12-05T05:19:39.726Z,4.27
2022-12-05T05:22:07.285Z,4.34
2022-12-05T05:24:34.894Z,4.29
2022-12-05T05:27:02.499Z,4.26
2022-12-05T05:29:30.128Z,4.19
2022-12-05T05:31:57.634Z,4.15
2022-12-05T05:34:26.601Z,4.12
2022-12-05T05:36:55.479Z,4.19
2022-12-05T05:39:23.131Z,4.23
2022-12-05T05:41:50.703Z,4.24
2022-12-05T05:44:18.229Z,4.23
2022-12-05T05:46:45.919Z,4.24
2022-12-05T05:49:13.520Z,4.22
2022-12-05T05:51:41.084Z,4.18
2022-12-05T05:54:10.972Z,4.16
2022-12-05T05:56:40.572Z,4.16
2022-12-05T05:59:08.580Z,4.14
2022-12-05T06:01:36.354Z,4.19
2022-12-05T06:04:04.056Z,4.20
2022-12-05T06:06:31.862Z,4.18
2022-12-05T06:08:59.518Z,4.19
2022-12-05T06:11:29.078Z,4.25
2022-12-05T06:13:58.011Z,4.26
2022-12-05T06:16:25.990Z,4.28
2022-12-05T06:18:54.138Z,5.30
2022-12-05T06:21:22.519Z,5.56
2022-12-05T06:23:50.361Z,5.45
2022-12-05T06:26:20.204Z,5.38
2022-12-05T06:28:49.576Z,5.48
2022-12-05T06:31:19.176Z,5.43
2022-12-05T06:33:47.481Z,5.28
2022-12-05T06:36:17.827Z,5.16
2022-12-05T06:38:45.519Z,5.07
2022-12-05T06:41:15.921Z,5.12
2022-12-05T06:43:43.510Z,5.08
2022-12-05T06:46:14.494Z,5.14
2022-12-05T06:48:42.407Z,5.14
2022-12-05T06:51:11.210Z,5.18
2022-12-05T06:53:39.301Z,5.21
2022-12-05T06:56:08.956Z,5.24
2022-12-05T06:58:36.588Z,5.20
2022-12-05T07:01:21.977Z,5.19
2022-12-05T07:03:51.080Z,5.05
2022-12-05T07:06:18.671Z,5.00
2022-12-05T07:08:47.549Z,4.93
2022-12-05T07:11:15.237Z,4.93
2022-12-05T07:13:42.812Z,4.83
2022-12-05T07:16:10.426Z,4.85
2022-12-05T07:18:38.305Z,4.86
2022-12-05T07:21:12.273Z,4.83
2022-12-05T07:23:41.301Z,4.72
2022-12-05T07:26:10.592Z,4.74
2022-12-05T07:28:38.138Z,4.71
2022-12-05T07:31:08.058Z,4.69
2022-12-05T07:33:36.255Z,4.69
2022-12-05T07:36:05.537Z,4.64
2022-12-05T07:38:34.609Z,4.63
2022-12-05T07:41:11.609Z,4.64
2022-12-05T07:43:40.935Z,4.60
2022-12-05T07:46:11.170Z,4.58
2022-12-05T07:48:39.283Z,4.57
2022-12-05T07:51:08.562Z,4.52
2022-12-05T07:53:38.924Z,4.55
2022-12-05T07:56:09.058Z,4.47
2022-12-05T07:58:37.163Z,4.41
2022-12-05T08:01:08.502Z,4.39
2022-12-05T08:03:37.359Z,4.38
2022-12-05T08:06:06.193Z,4.44
2022-12-05T08:08:34.082Z,4.49
2022-12-05T08:11:06.284Z,4.68
2022-12-05T08:13:34.312Z,4.70
2022-12-05T08:16:03.665Z,4.74
2022-12-05T08:18:31.927Z,4.74
2022-12-05T08:21:03.033Z,4.75
2022-12-05T08:23:31.832Z,4.70
2022-12-05T08:26:02.891Z,4.69
2022-12-05T08:28:32.378Z,4.76
2022-12-05T08:31:05.226Z,4.72
2022-12-05T08:33:32.971Z,4.69
2022-12-05T08:36:02.063Z,4.68
2022-12-05T08:38:29.612Z,4.64
2022-12-05T08:40:57.174Z,4.68
2022-12-05T08:43:24.692Z,4.69
2022-12-05T08:45:54.161Z,4.69
2022-12-05T08:48:27.555Z,4.64
2022-12-05T08:50:57.661Z,4.68
2022-12-05T08:53:25.525Z,4.76
2022-12-05T08:55:53.114Z,4.80
2022-12-05T08:58:20.689Z,4.81
2022-12-05T09:00:48.388Z,4.79
2022-12-05T09:03:17.305Z,4.80
2022-12-05T09:05:44.884Z,4.80
2022-12-05T09:08:12.528Z,4.82
2022-12-05T09:10:40.136Z,4.82
2022-12-05T09:13:07.659Z,4.87
2022-12-05T09:15:35.326Z,4.90
2022-12-05T09:18:02.874Z,4.94
2022-12-05T09:20:31.716Z,4.97
2022-12-05T09:22:59.276Z,4.99
2022-12-05T09:25:26.957Z,5.07
2022-12-05T09:27:54.906Z,5.10
2022-12-05T09:30:22.402Z,5.12
2022-12-05T09:32:49.945Z,5.19
2022-12-05T09:35:17.592Z,5.15
2022-12-05T09:37:46.462Z,5.15
2022-12-05T09:40:17.463Z,5.19
2022-12-05T09:42:59.977Z,5.09
2022-12-05T09:45:35.510Z,5.10
2022-12-05T09:48:08.404Z,5.05
2022-12-05T09:50:43.064Z,5.03
2022-12-05T09:53:20.209Z,5.03
2022-12-05T09:55:53.069Z,5.09
2022-12-05T09:58:39.414Z,5.15
2022-12-05T10:01:32.478Z,5.13
2022-12-05T10:04:17.877Z,5.11
2022-12-05T10:06:56.178Z,5.07
2022-12-05T10:09:42.579Z,5.08
2022-12-05T10:12:20.999Z,5.06
2022-12-05T10:14:59.989Z,5.06
2022-12-05T10:17:32.656Z,5.06
2022-12-05T10:20:05.687Z,5.04
2022-12-05T10:22:43.211Z,5.05
2022-12-05T10:25:15.936Z,5.10
2022-12-05T10:27:49.991Z,5.14
2022-12-05T10:30:19.674Z,5.13
2022-12-05T10:32:53.977Z,5.14
2022-12-05T10:35:24.626Z,5.14
2022-12-05T10:37:55.184Z,5.18
2022-12-05T10:40:25.863Z,5.22
2022-12-05T10:42:53.544Z,5.28
2022-12-05T10:45:23.050Z,5.37
2022-12-05T10:47:55.968Z,5.49
2022-12-05T10:50:26.807Z,5.60
2022-12-05T10:52:56.808Z,5.73
2022-12-05T10:55:31.934Z,5.85
2022-12-05T10:58:17.635Z,5.94
2022-12-05T11:00:48.689Z,5.99
2022-12-05T11:03:26.868Z,6.03
2022-12-05T11:05:56.767Z,6.03
2022-12-05T11:08:48.235Z,6.05
2022-12-05T11:11:22.787Z,6.16
2022-12-05T11:13:55.003Z,6.13
2022-12-05T11:16:25.320Z,6.16
2022-12-05T11:18:53.216Z,6.19
2022-12-05T11:21:20.860Z,6.25
2022-12-05T11:23:49.099Z,6.30
2022-12-05T11:26:35.965Z,6.38
2022-12-05T11:29:04.379Z,6.54
2022-12-05T11:31:32.504Z,6.86
2022-12-05T11:34:12.714Z,7.16
2022-12-05T11:36:44.049Z,7.52
2022-12-05T11:39:13.617Z,7.76
2022-12-05T11:42:04.024Z,8.21
2022-12-05T11:44:49.554Z,8.26
2022-12-05T11:47:29.410Z,8.34
2022-12-05T11:50:14.047Z,8.20
2022-12-05T11:52:58.414Z,7.95
2022-12-05T11:55:30.866Z,7.71
2022-12-05T11:58:16.457Z,7.72
2022-12-05T12:00:57.568Z,7.44
2022-12-05T12:03:39.868Z,7.21
2022-12-05T12:06:25.970Z,7.06
2022-12-05T12:09:16.399Z,6.82
2022-12-05T12:11:50.207Z,6.70
2022-12-05T12:14:26.301Z,6.72
2022-12-05T12:17:04.153Z,6.67
2022-12-05T12:19:44.745Z,6.65
2022-12-05T12:22:27.816Z,6.66
2022-12-05T12:25:16.499Z,6.62
2022-12-05T12:28:02.948Z,6.69
2022-12-05T12:30:51.388Z,6.86
2022-12-05T12:33:31.497Z,6.92
2022-12-05T12:36:08.092Z,6.94
2022-12-05T12:38:54.261Z,6.95
2022-12-05T12:41:42.643Z,6.82
2022-12-05T12:44:33.966Z,6.70
2022-12-05T12:47:05.198Z,6.57
2022-12-05T12:49:49.471Z,6.57
2022-12-05T12:52:21.278Z,6.57
2022-12-05T12:55:15.993Z,6.60
2022-12-05T12:58:02.151Z,6.66
2022-12-05T13:00:39.494Z,6.82
2022-12-05T13:03:13.861Z,6.91
2022-12-05T13:05:47.586Z,6.98
2022-12-05T13:08:22.238Z,7.02
2022-12-05T13:10:50.158Z,7.14
2022-12-05T13:13:22.191Z,7.25
2022-12-05T13:15:52.410Z,7.25
2022-12-05T13:18:23.443Z,7.26
2022-12-05T13:20:53.516Z,7.07
2022-12-05T13:23:24.819Z,6.95
2022-12-05T13:25:54.737Z,7.00
2022-12-05T13:28:29.751Z,6.96
2022-12-05T13:31:01.594Z,6.95
2022-12-05T13:33:34.526Z,6.89
2022-12-05T13:36:28.644Z,6.90
2022-12-05T13:39:19.594Z,6.73
2022-12-05T13:42:08.540Z,6.72
2022-12-05T13:44:40.122Z,6.73
2022-12-05T13:47:19.812Z,6.74
2022-12-05T13:49:53.668Z,6.74
2022-12-05T13:52:24.942Z,6.75
2022-12-05T13:54:58.305Z,6.82
2022-12-05T13:57:40.578Z,6.75
2022-12-05T14:00:23.085Z,6.76
2022-12-05T14:02:56.499Z,6.74
2022-12-05T14:05:53.340Z,6.78
2022-12-05T14:08:56.715Z,6.67
2022-12-05T14:11:24.792Z,6.67
2022-12-05T14:13:52.806Z,6.66
2022-12-05T14:16:49.256Z,6.66
2022-12-05T14:19:43.118Z,6.60
2022-12-05T14:22:31.205Z,6.61
2022-12-05T14:25:07.349Z,6.61
2022-12-05T14:27:48.736Z,6.49
2022-12-05T14:30:25.074Z,6.40
2022-12-05T14:32:55.038Z,6.44
2022-12-05T14:35:29.233Z,6.37
2022-12-05T14:38:02.086Z,6.34
2022-12-05T14:40:33.353Z,6.39
2022-12-05T14:43:03.592Z,6.34
2022-12-05T14:45:35.536Z,6.29
2022-12-05T14:48:06.511Z,6.29
2022-12-05T14:50:41.421Z,6.27
2022-12-05T14:53:23.094Z,6.24
2022-12-05T14:55:54.682Z,6.23
2022-12-05T14:58:33.711Z,6.28
2022-12-05T15:01:04.350Z,6.32
2022-12-05T15:03:35.706Z,6.23
2022-12-05T15:06:05.919Z,6.19
2022-12-05T15:08:44.870Z,6.13
2022-12-05T15:11:28.044Z,6.09
2022-12-05T15:13:59.388Z,6.07
2022-12-05T15:16:29.919Z,6.06
2022-12-05T15:19:03.311Z,6.05
2022-12-05T15:21:34.256Z,6.09
2022-12-05T15:24:05.577Z,6.06
2022-12-05T15:26:48.281Z,6.06
2022-12-05T15:29:24.304Z,6.06
2022-12-05T15:31:53.828Z,6.03
2022-12-05T15:34:25.654Z,5.99
2022-12-05T15:36:58.861Z,6.08
2022-12-05T15:39:28.491Z,6.26
2022-12-05T15:41:57.928Z,6.21
2022-12-05T15:44:34.415Z,6.16
2022-12-05T15:47:05.319Z,6.44
2022-12-05T15:49:32.927Z,6.36
2022-12-05T15:52:11.095Z,6.35
2022-12-05T15:54:40.873Z,6.23
2022-12-05T15:57:13.529Z,6.20
2022-12-05T15:59:45.940Z,6.19
2022-12-05T16:02:18.151Z,6.18
2022-12-05T16:04:50.337Z,6.15
2022-12-05T16:07:18.714Z,6.16
2022-12-05T16:09:48.681Z,6.16
2022-12-05T16:12:21.126Z,6.13
2022-12-05T16:15:00.654Z,6.09
2022-12-05T16:17:30.784Z,6.11
2022-12-05T16:20:22.466Z,6.11
2022-12-05T16:22:53.905Z,6.07
2022-12-05T16:25:27.375Z,6.05
2022-12-05T16:28:03.884Z,6.06
2022-12-05T16:30:32.601Z,6.04
2022-12-05T16:33:05.368Z,6.00
2022-12-05T16:35:37.137Z,6.00
2022-12-05T16:38:19.320Z,6.02
2022-12-05T16:40:57.177Z,6.05
2022-12-05T16:43:29.063Z,6.01
2022-12-05T16:45:59.588Z,5.98
2022-12-05T16:48:28.416Z,5.91
2022-12-05T16:51:18.355Z,5.89
2022-12-05T16:53:47.572Z,5.86
2022-12-05T16:56:19.501Z,5.86
2022-12-05T16:58:47.529Z,5.83
2022-12-05T17:01:19.211Z,5.83
2022-12-05T17:03:47.278Z,5.79
2022-12-05T17:06:16.042Z,5.74
2022-12-05T17:08:43.629Z,5.69
2022-12-05T17:11:18.131Z,5.67
2022-12-05T17:13:48.295Z,5.68
2022-12-05T17:16:16.251Z,5.64
2022-12-05T17:18:44.178Z,5.53
2022-12-05T17:21:15.962Z,5.55
2022-12-05T17:23:47.768Z,5.56
2022-12-05T17:26:19.227Z,5.55
2022-12-05T17:28:47.224Z,5.55
2022-12-05T17:31:17.150Z,5.56
2022-12-05T17:33:45.754Z,5.54
2022-12-05T17:36:14.115Z,5.53
2022-12-05T17:38:41.770Z,5.52
2022-12-05T17:41:15.226Z,5.68
2022-12-05T17:43:44.908Z,5.67
2022-12-05T17:46:13.615Z,5.63
2022-12-05T17:48:41.217Z,5.79
2022-12-05T17:51:11.233Z,5.74
2022-12-05T17:53:39.152Z,5.66
2022-12-05T17:56:07.487Z,5.57
2022-12-05T17:58:35.089Z,5.48
2022-12-05T18:01:04.578Z,5.44
2022-12-05T18:03:32.550Z,5.42
2022-12-05T18:06:00.251Z,5.42
2022-12-05T18:08:28.658Z,5.39
2022-12-05T18:10:56.996Z,5.35
2022-12-05T18:13:24.591Z,5.31
2022-12-05T18:15:57.728Z,5.29
2022-12-05T18:18:27.289Z,5.27
2022-12-05T18:21:05.051Z,5.26
2022-12-05T18:23:32.673Z,5.23
2022-12-05T18:26:00.656Z,5.25
2022-12-05T18:28:28.445Z,5.23
2022-12-05T18:31:09.915Z,5.21
2022-12-05T18:33:40.887Z,5.20
2022-12-05T18:36:10.286Z,5.20
2022-12-05T18:38:38.978Z,5.20
2022-12-05T18:41:07.441Z,5.30
2022-12-05T18:43:35.167Z,5.21
2022-12-05T18:46:05.336Z,5.18
2022-12-05T18:48:47.014Z,5.16
2022-12-05T18:51:18.691Z,5.14
2022-12-05T18:53:51.888Z,5.12
2022-12-05T18:56:23.161Z,5.15
2022-12-05T18:58:56.884Z,5.11
2022-12-05T19:01:25.423Z,5.12
2022-12-05T19:03:53.822Z,5.10
2022-12-05T19:06:25.503Z,5.06
2022-12-05T19:08:55.573Z,5.01
2022-12-05T19:11:24.071Z,4.96
2022-12-05T19:13:55.752Z,4.93
2022-12-05T19:16:23.424Z,4.90
2022-12-05T19:18:54.850Z,4.87
2022-12-05T19:21:24.065Z,4.85
2022-12-05T19:23:51.954Z,4.77
2022-12-05T19:26:19.496Z,4.75
2022-12-05T19:28:47.115Z,4.65
2022-12-05T19:31:16.756Z,4.52
2022-12-05T19:33:46.355Z,4.48
2022-12-05T19:36:16.010Z,4.38
2022-12-05T19:38:46.883Z,4.31
2022-12-05T19:41:17.046Z,4.23
2022-12-05T19:43:45.070Z,4.20
2022-12-05T19:46:16.092Z,4.16
2022-12-05T19:48:43.842Z,4.09
2022-12-05T19:51:11.693Z,4.06
2022-12-05T19:53:41.695Z,3.95
2022-12-05T19:56:14.795Z,3.91
2022-12-05T19:58:43.301Z,3.87
2022-12-05T20:01:12.325Z,3.89
2022-12-05T20:03:40.596Z,3.85
2022-12-05T20:06:09.526Z,3.86
2022-12-05T20:08:38.642Z,3.87
2022-12-05T20:11:07.576Z,3.89
2022-12-05T20:13:46.363Z,3.90
2022-12-05T20:16:16.834Z,3.89
2022-12-05T20:18:44.448Z,3.96
2022-12-05T20:21:14.401Z,4.02
2022-12-05T20:23:42.248Z,4.04
2022-12-05T20:26:11.987Z,4.07
2022-12-05T20:28:41.310Z,4.09
2022-12-05T20:31:11.333Z,4.07
2022-12-05T20:33:39.439Z,4.06
2022-12-05T20:36:08.765Z,4.07
2022-12-05T20:38:36.632Z,4.08
2022-12-05T20:41:06.507Z,4.11
2022-12-05T20:43:34.374Z,4.10
2022-12-05T20:46:07.918Z,4.09
2022-12-05T20:48:35.927Z,4.10
2022-12-05T20:51:07.756Z,4.06
2022-12-05T20:53:36.521Z,4.07
2022-12-05T20:56:05.758Z,4.09
2022-12-05T20:58:33.482Z,4.11
2022-12-05T21:01:01.865Z,4.10
2022-12-05T21:03:31.334Z,4.12
2022-12-05T21:05:58.919Z,4.10
2022-12-05T21:08:27.380Z,4.08
2022-12-05T21:10:54.906Z,4.09
2022-12-05T21:13:22.448Z,4.13
2022-12-05T21:15:50.124Z,4.06
2022-12-05T21:18:17.779Z,4.01
2022-12-05T21:20:56.536Z,4.03
2022-12-05T21:23:24.176Z,4.04
2022-12-05T21:25:51.805Z,4.08
2022-12-05T21:28:19.438Z,4.08
2022-12-05T21:30:47.140Z,4.11
2022-12-05T21:33:14.834Z,4.13
2022-12-05T21:35:42.434Z,4.13
2022-12-05T21:38:11.361Z,4.14
2022-12-05T21:40:38.890Z,4.15
2022-12-05T21:43:06.510Z,4.17
2022-12-05T21:45:36.602Z,4.19
2022-12-05T21:48:08.200Z,4.14
2022-12-05T21:50:38.426Z,4.14
2022-12-05T21:53:05.950Z,4.14
2022-12-05T21:55:35.214Z,4.14
2022-12-05T21:58:02.829Z,4.16
2022-12-05T22:00:30.457Z,4.14
2022-12-05T22:02:58.150Z,4.14
2022-12-05T22:05:25.839Z,4.10
2022-12-05T22:07:53.513Z,4.10
2022-12-05T22:10:21.226Z,4.09
2022-12-05T22:12:50.288Z,4.09
2022-12-05T22:15:18.037Z,4.05
2022-12-05T22:17:45.656Z,4.05
2022-12-05T22:20:13.260Z,4.04
2022-12-05T22:22:40.852Z,3.99
2022-12-05T22:25:09.076Z,3.96
2022-12-05T22:27:36.652Z,3.93
2022-12-05T22:30:07.059Z,3.84
2022-12-05T22:32:34.672Z,3.77
2022-12-05T22:35:04.305Z,3.74
2022-12-05T22:37:32.149Z,3.69
2022-12-05T22:40:00.065Z,3.67
2022-12-05T22:42:27.963Z,3.63
2022-12-05T22:44:55.529Z,3.60
2022-12-05T22:47:24.442Z,3.52
2022-12-05T22:49:52.025Z,3.45
2022-12-05T22:52:19.663Z,3.39
2022-12-05T22:54:47.249Z,3.36
2022-12-05T22:57:14.780Z,3.33
2022-12-05T22:59:42.364Z,3.31
2022-12-05T23:02:09.855Z,3.26
2022-12-05T23:04:38.738Z,3.25
2022-12-05T23:07:06.222Z,3.20
2022-12-05T23:09:33.790Z,3.18
2022-12-05T23:12:01.404Z,3.15
2022-12-05T23:14:28.986Z,3.09
2022-12-05T23:16:56.540Z,3.06
2022-12-05T23:19:24.251Z,3.01
2022-12-05T23:21:53.126Z,3.00
2022-12-05T23:24:20.786Z,2.98
2022-12-05T23:26:48.354Z,3.00
2022-12-05T23:29:16.295Z,2.93
2022-12-05T23:31:44.115Z,2.92
2022-12-05T23:34:12.419Z,2.93
2022-12-05T23:36:40.066Z,2.88
2022-12-05T23:39:08.980Z,2.91
2022-12-05T23:41:36.624Z,2.87
2022-12-05T23:44:04.996Z,2.91
2022-12-05T23:46:32.632Z,2.91
2022-12-05T23:49:00.572Z,2.94
2022-12-05T23:51:29.573Z,2.96
2022-12-05T23:53:59.199Z,2.97
2022-12-05T23:56:30.131Z,3.01
2022-12-05T23:58:58.007Z,3.02
